createdAt,value
2018-12-01T00:00:57.373Z,18.98
2018-12-01T00:01:57.369Z,19.01
2018-12-01T00:02:57.352Z,19.09
2018-12-01T00:03:57.364Z,19.12
2018-12-01T00:04:57.332Z,19.08
2018-12-01T00:05:57.322Z,19.05
2018-12-01T00:06:57.338Z,19.05
2018-12-01T00:07:57.300Z,19.09
2018-12-01T00:08:57.284Z,19.09
2018-12-01T00:09:57.294Z,19.04
2018-12-01T00:10:57.280Z,19.09
2018-12-01T00:11:57.262Z,19.12
2018-12-01T00:12:57.249Z,19.08
2018-12-01T00:13:57.235Z,19.16
2018-12-01T00:14:57.292Z,19.07
2018-12-01T00:15:57.216Z,19.11
2018-12-01T00:16:57.198Z,19.04
2018-12-01T00:17:57.194Z,19.16
2018-12-01T00:18:57.192Z,19.16
2018-12-01T00:19:57.182Z,19.11
2018-12-01T00:20:57.159Z,19.15
2018-12-01T00:21:57.151Z,19.15
2018-12-01T00:22:57.148Z,19.15
2018-12-01T00:23:57.131Z,19.12
2018-12-01T00:24:57.156Z,19.16
2018-12-01T00:25:57.111Z,19.08
2018-12-01T00:26:57.153Z,19.15
2018-12-01T00:27:57.088Z,19.19
2018-12-01T00:28:57.081Z,19.19
2018-12-01T00:29:57.072Z,19.17
2018-12-01T00:30:57.076Z,19.15
2018-12-01T00:31:57.052Z,19.22
2018-12-01T00:32:57.034Z,19.15
2018-12-01T00:33:57.026Z,19.22
2018-12-01T00:34:57.014Z,19.23
2018-12-01T00:35:57.023Z,19.29
2018-12-01T00:36:57.003Z,19.24
2018-12-01T00:37:57.000Z,19.27
2018-12-01T00:38:56.971Z,19.30
2018-12-01T00:39:56.965Z,19.30
2018-12-01T00:40:56.981Z,19.29
2018-12-01T00:41:56.942Z,19.30
2018-12-01T00:42:56.930Z,19.26
2018-12-01T00:43:56.921Z,19.27
2018-12-01T00:44:57.120Z,19.29
2018-12-01T00:45:56.937Z,19.38
2018-12-01T00:46:56.892Z,19.35
2018-12-01T00:47:56.883Z,19.35
2018-12-01T00:48:56.869Z,19.42
2018-12-01T00:49:56.858Z,19.47
2018-12-01T00:50:57.621Z,19.47
2018-12-01T00:51:56.837Z,19.44
2018-12-01T00:52:56.837Z,19.39
2018-12-01T00:53:56.819Z,19.48
2018-12-01T00:54:56.806Z,19.48
2018-12-01T00:55:56.832Z,19.47
2018-12-01T00:56:56.795Z,19.55
2018-12-01T00:57:56.773Z,19.55
2018-12-01T00:58:56.765Z,19.45
2018-12-01T00:59:56.754Z,19.47
2018-12-01T01:00:56.750Z,19.44
2018-12-01T01:01:56.754Z,19.44
2018-12-01T01:02:56.725Z,19.44
2018-12-01T01:03:56.723Z,19.45
2018-12-01T01:04:56.745Z,19.55
2018-12-01T01:05:56.771Z,19.52
2018-12-01T01:06:56.784Z,19.57
2018-12-01T01:07:56.680Z,19.52
2018-12-01T01:08:56.666Z,19.47
2018-12-01T01:09:56.665Z,19.48
2018-12-01T01:10:56.646Z,19.60
2018-12-01T01:11:56.652Z,19.57
2018-12-01T01:12:56.622Z,19.60
2018-12-01T01:13:56.620Z,19.62
2018-12-01T01:14:56.607Z,19.57
2018-12-01T01:15:56.596Z,19.56
2018-12-01T01:16:56.610Z,19.57
2018-12-01T01:17:56.579Z,19.48
2018-12-01T01:18:56.554Z,19.53
2018-12-01T01:19:56.548Z,19.48
2018-12-01T01:20:56.542Z,19.45
2018-12-01T01:21:56.521Z,19.45
2018-12-01T01:22:56.529Z,19.38
2018-12-01T01:23:56.500Z,19.32
2018-12-01T01:24:56.495Z,19.34
2018-12-01T01:25:56.480Z,19.24
2018-12-01T01:26:56.467Z,19.20
2018-12-01T01:27:56.474Z,19.16
2018-12-01T01:28:56.457Z,19.12
2018-12-01T01:29:56.436Z,19.09
2018-12-01T01:30:56.427Z,19.11
2018-12-01T01:31:56.420Z,19.16
2018-12-01T01:32:56.419Z,19.11
2018-12-01T01:33:56.394Z,19.11
2018-12-01T01:34:56.384Z,19.09
2018-12-01T01:35:56.371Z,19.17
2018-12-01T01:36:56.363Z,19.12
2018-12-01T01:37:56.388Z,19.09
2018-12-01T01:38:56.342Z,19.11
2018-12-01T01:39:56.328Z,19.17
2018-12-01T01:40:56.321Z,19.17
2018-12-01T01:41:56.312Z,19.23
2018-12-01T01:42:56.309Z,19.34
2018-12-01T01:43:56.300Z,19.30
2018-12-01T01:44:56.278Z,19.27
2018-12-01T01:45:56.268Z,19.35
2018-12-01T01:46:56.258Z,19.26
2018-12-01T01:47:56.247Z,19.30
2018-12-01T01:48:56.258Z,19.34
2018-12-01T01:49:56.224Z,19.37
2018-12-01T01:50:56.210Z,19.32
2018-12-01T01:51:56.208Z,19.32
2018-12-01T01:52:56.189Z,19.29
2018-12-01T01:53:56.202Z,19.37
2018-12-01T01:54:56.172Z,19.32
2018-12-01T01:55:56.166Z,19.38
2018-12-01T01:56:56.156Z,19.39
2018-12-01T01:57:56.146Z,19.37
2018-12-01T01:58:56.156Z,19.39
2018-12-01T01:59:56.115Z,19.38
2018-12-01T02:00:56.110Z,19.41
2018-12-01T02:01:56.107Z,19.47
2018-12-01T02:02:56.084Z,19.38
2018-12-01T02:03:56.083Z,19.44
2018-12-01T02:04:56.085Z,19.44
2018-12-01T02:05:56.058Z,19.47
2018-12-01T02:06:56.048Z,19.47
2018-12-01T02:07:56.038Z,19.45
2018-12-01T02:08:56.027Z,19.45
2018-12-01T02:09:56.040Z,19.55
2018-12-01T02:10:56.022Z,19.56
2018-12-01T02:11:55.993Z,19.60
2018-12-01T02:12:55.986Z,19.60
2018-12-01T02:13:55.973Z,19.57
2018-12-01T02:14:55.965Z,19.62
2018-12-01T02:15:55.963Z,19.60
2018-12-01T02:16:55.945Z,19.49
2018-12-01T02:17:55.931Z,19.59
2018-12-01T02:18:55.923Z,19.47
2018-12-01T02:19:55.915Z,19.57
2018-12-01T02:20:55.921Z,19.56
2018-12-01T02:21:55.898Z,19.66
2018-12-01T02:22:55.888Z,19.64
2018-12-01T02:23:55.868Z,19.60
2018-12-01T02:24:55.861Z,19.59
2018-12-01T02:25:55.872Z,19.64
2018-12-01T02:26:55.836Z,19.63
2018-12-01T02:27:55.828Z,19.66
2018-12-01T02:28:55.836Z,19.62
2018-12-01T02:29:55.805Z,19.62
2018-12-01T02:30:55.829Z,19.66
2018-12-01T02:31:55.782Z,19.67
2018-12-01T02:32:55.774Z,19.67
2018-12-01T02:33:55.773Z,19.71
2018-12-01T02:34:55.753Z,19.63
2018-12-01T02:35:55.749Z,19.55
2018-12-01T02:36:55.743Z,19.64
2018-12-01T02:37:55.721Z,19.71
2018-12-01T02:38:55.715Z,19.66
2018-12-01T02:39:55.701Z,19.53
2018-12-01T02:40:55.720Z,19.62
2018-12-01T02:41:55.715Z,19.63
2018-12-01T02:42:55.672Z,19.66
2018-12-01T02:43:55.659Z,19.59
2018-12-01T02:44:55.649Z,19.66
2018-12-01T02:45:55.647Z,19.62
2018-12-01T02:46:55.628Z,19.66
2018-12-01T02:47:55.634Z,19.64
2018-12-01T02:48:55.611Z,19.66
2018-12-01T02:49:55.603Z,19.77
2018-12-01T02:50:55.585Z,19.70
2018-12-01T02:51:55.578Z,19.71
2018-12-01T02:52:55.592Z,19.74
2018-12-01T02:53:55.570Z,19.63
2018-12-01T02:54:55.548Z,19.56
2018-12-01T02:55:55.536Z,19.62
2018-12-01T02:56:55.531Z,19.67
2018-12-01T02:57:55.519Z,19.62
2018-12-01T02:58:55.519Z,19.64
2018-12-01T02:59:55.492Z,19.60
2018-12-01T03:00:55.488Z,19.60
2018-12-01T03:01:55.477Z,19.63
2018-12-01T03:02:55.466Z,19.67
2018-12-01T03:03:55.472Z,19.71
2018-12-01T03:04:55.441Z,19.75
2018-12-01T03:05:55.430Z,19.78
2018-12-01T03:06:55.421Z,19.72
2018-12-01T03:07:55.423Z,19.75
2018-12-01T03:08:55.415Z,19.70
2018-12-01T03:09:55.391Z,19.71
2018-12-01T03:10:55.382Z,19.70
2018-12-01T03:11:55.372Z,19.72
2018-12-01T03:12:55.360Z,19.75
2018-12-01T03:13:55.384Z,19.67
2018-12-01T03:14:55.339Z,19.74
2018-12-01T03:15:55.326Z,19.74
2018-12-01T03:16:55.315Z,19.67
2018-12-01T03:17:55.315Z,19.72
2018-12-01T03:18:55.299Z,19.67
2018-12-01T03:19:55.310Z,19.71
2018-12-01T03:20:55.275Z,19.79
2018-12-01T03:21:55.266Z,19.72
2018-12-01T03:22:55.254Z,19.74
2018-12-01T03:23:55.245Z,19.72
2018-12-01T03:24:55.258Z,19.75
2018-12-01T03:25:55.225Z,19.72
2018-12-01T03:26:55.213Z,19.71
2018-12-01T03:27:55.204Z,19.70
2018-12-01T03:28:55.194Z,19.77
2018-12-01T03:29:55.185Z,19.74
2018-12-01T03:30:55.184Z,19.64
2018-12-01T03:31:55.180Z,19.53
2018-12-01T03:32:55.152Z,19.62
2018-12-01T03:33:55.141Z,19.60
2018-12-01T03:34:55.131Z,19.62
2018-12-01T03:35:55.135Z,19.67
2018-12-01T03:36:55.111Z,19.64
2018-12-01T03:37:55.101Z,19.75
2018-12-01T03:38:55.089Z,19.71
2018-12-01T03:39:55.085Z,19.75
2018-12-01T03:40:55.089Z,19.79
2018-12-01T03:41:55.060Z,19.84
2018-12-01T03:42:55.044Z,19.81
2018-12-01T03:43:55.038Z,19.77
2018-12-01T03:44:55.027Z,19.81
2018-12-01T03:45:55.030Z,19.75
2018-12-01T03:46:55.009Z,19.84
2018-12-01T03:47:54.999Z,19.72
2018-12-01T03:48:54.987Z,19.72
2018-12-01T03:49:54.975Z,19.63
2018-12-01T03:50:55.001Z,19.57
2018-12-01T03:51:54.963Z,19.49
2018-12-01T03:52:54.941Z,19.47
2018-12-01T03:53:54.934Z,19.44
2018-12-01T03:54:54.925Z,19.38
2018-12-01T03:55:54.911Z,19.38
2018-12-01T03:56:54.914Z,19.37
2018-12-01T03:57:54.890Z,19.27
2018-12-01T03:58:54.902Z,19.29
2018-12-01T03:59:54.879Z,19.26
2018-12-01T04:00:54.860Z,19.29
2018-12-01T04:01:54.878Z,19.30
2018-12-01T04:02:54.842Z,19.32
2018-12-01T04:03:54.829Z,19.26
2018-12-01T04:04:54.819Z,19.26
2018-12-01T04:05:54.812Z,19.27
2018-12-01T04:06:54.797Z,19.35
2018-12-01T04:07:54.802Z,19.37
2018-12-01T04:08:54.774Z,19.38
2018-12-01T04:09:54.762Z,19.41
2018-12-01T04:10:54.754Z,19.38
2018-12-01T04:11:54.747Z,19.35
2018-12-01T04:12:54.745Z,19.39
2018-12-01T04:13:54.723Z,19.37
2018-12-01T04:14:54.729Z,19.49
2018-12-01T04:15:54.699Z,19.45
2018-12-01T04:16:54.690Z,19.45
2018-12-01T04:17:54.698Z,19.44
2018-12-01T04:18:54.714Z,19.44
2018-12-01T04:19:54.668Z,19.37
2018-12-01T04:20:54.657Z,19.35
2018-12-01T04:21:54.637Z,19.39
2018-12-01T04:22:54.661Z,19.35
2018-12-01T04:23:54.633Z,19.39
2018-12-01T04:24:54.613Z,19.37
2018-12-01T04:25:54.602Z,19.26
2018-12-01T04:26:54.584Z,19.29
2018-12-01T04:27:54.573Z,19.32
2018-12-01T04:28:54.577Z,19.24
2018-12-01T04:29:54.554Z,19.27
2018-12-01T04:30:54.550Z,19.22
2018-12-01T04:31:54.540Z,19.27
2018-12-01T04:32:54.524Z,19.26
2018-12-01T04:33:54.540Z,19.26
2018-12-01T04:34:54.506Z,19.24
2018-12-01T04:35:54.492Z,19.20
2018-12-01T04:36:54.492Z,19.20
2018-12-01T04:37:54.473Z,19.24
2018-12-01T04:38:54.459Z,19.35
2018-12-01T04:39:54.468Z,19.30
2018-12-01T04:40:54.444Z,19.29
2018-12-01T04:41:54.427Z,19.26
2018-12-01T04:42:54.423Z,19.39
2018-12-01T04:43:54.405Z,19.37
2018-12-01T04:44:54.406Z,19.47
2018-12-01T04:45:54.385Z,19.47
2018-12-01T04:46:54.377Z,19.53
2018-12-01T04:47:54.366Z,19.52
2018-12-01T04:48:54.362Z,19.57
2018-12-01T04:49:54.367Z,19.60
2018-12-01T04:50:54.335Z,19.63
2018-12-01T04:51:54.330Z,19.60
2018-12-01T04:52:54.324Z,19.66
2018-12-01T04:53:54.303Z,19.63
2018-12-01T04:54:54.299Z,19.72
2018-12-01T04:55:54.316Z,19.75
2018-12-01T04:56:54.276Z,19.75
2018-12-01T04:57:54.267Z,19.81
2018-12-01T04:58:54.253Z,19.74
2018-12-01T04:59:54.241Z,19.81
2018-12-01T05:00:54.252Z,19.87
2018-12-01T05:01:54.222Z,19.82
2018-12-01T05:02:54.212Z,19.85
2018-12-01T05:03:54.202Z,19.87
2018-12-01T05:04:54.191Z,19.92
2018-12-01T05:05:54.195Z,19.94
2018-12-01T05:06:54.171Z,19.96
2018-12-01T05:07:54.169Z,19.92
2018-12-01T05:08:54.150Z,19.96
2018-12-01T05:09:54.142Z,19.99
2018-12-01T05:10:54.142Z,19.97
2018-12-01T05:11:54.123Z,19.87
2018-12-01T05:12:54.104Z,19.90
2018-12-01T05:13:54.101Z,19.89
2018-12-01T05:14:54.088Z,19.94
2018-12-01T05:15:54.099Z,19.93
2018-12-01T05:16:54.063Z,19.89
2018-12-01T05:17:54.056Z,19.93
2018-12-01T05:18:54.048Z,19.87
2018-12-01T05:19:54.038Z,19.90
2018-12-01T05:20:54.024Z,19.90
2018-12-01T05:21:54.029Z,19.94
2018-12-01T05:22:54.004Z,19.93
2018-12-01T05:23:53.999Z,19.90
2018-12-01T05:24:53.987Z,19.93
2018-12-01T05:25:53.982Z,19.92
2018-12-01T05:26:53.983Z,19.90
2018-12-01T05:27:53.949Z,19.94
2018-12-01T05:28:53.941Z,19.93
2018-12-01T05:29:53.932Z,20.02
2018-12-01T05:30:53.922Z,20.03
2018-12-01T05:31:53.929Z,20.08
2018-12-01T05:32:53.901Z,20.10
2018-12-01T05:33:53.888Z,20.03
2018-12-01T05:34:53.879Z,20.14
2018-12-01T05:35:53.866Z,20.11
2018-12-01T05:36:53.876Z,20.14
2018-12-01T05:37:53.848Z,20.14
2018-12-01T05:38:53.837Z,20.12
2018-12-01T05:39:53.826Z,20.15
2018-12-01T05:40:53.815Z,20.10
2018-12-01T05:41:53.826Z,20.04
2018-12-01T05:42:53.805Z,20.00
2018-12-01T05:43:53.784Z,20.07
2018-12-01T05:44:53.771Z,20.04
2018-12-01T05:45:53.767Z,20.04
2018-12-01T05:46:53.775Z,20.12
2018-12-01T05:47:53.747Z,20.17
2018-12-01T05:48:53.739Z,20.11
2018-12-01T05:49:53.726Z,20.15
2018-12-01T05:50:53.712Z,20.19
2018-12-01T05:51:53.741Z,20.17
2018-12-01T05:52:53.692Z,20.15
2018-12-01T05:53:53.684Z,20.21
2018-12-01T05:54:53.673Z,20.11
2018-12-01T05:55:53.662Z,20.19
2018-12-01T05:56:53.648Z,20.11
2018-12-01T05:57:53.656Z,20.14
2018-12-01T05:58:53.628Z,20.17
2018-12-01T05:59:53.625Z,20.19
2018-12-01T06:00:53.608Z,20.03
2018-12-01T06:01:53.597Z,20.02
2018-12-01T06:02:53.607Z,20.00
2018-12-01T06:03:53.577Z,19.96
2018-12-01T06:04:53.569Z,19.93
2018-12-01T06:05:53.562Z,19.94
2018-12-01T06:06:53.546Z,19.78
2018-12-01T06:07:53.556Z,19.87
2018-12-01T06:08:53.528Z,19.75
2018-12-01T06:09:53.514Z,19.79
2018-12-01T06:10:53.505Z,19.81
2018-12-01T06:11:53.499Z,19.72
2018-12-01T06:12:53.512Z,19.72
2018-12-01T06:13:53.471Z,19.77
2018-12-01T06:14:53.464Z,19.71
2018-12-01T06:15:53.458Z,19.70
2018-12-01T06:16:53.446Z,19.62
2018-12-01T06:17:53.447Z,19.66
2018-12-01T06:18:53.422Z,19.59
2018-12-01T06:19:53.407Z,19.56
2018-12-01T06:20:53.405Z,19.49
2018-12-01T06:21:53.388Z,19.47
2018-12-01T06:22:53.402Z,19.39
2018-12-01T06:23:53.374Z,19.52
2018-12-01T06:24:53.354Z,19.52
2018-12-01T06:25:53.349Z,19.38
2018-12-01T06:26:53.385Z,19.52
2018-12-01T06:27:53.361Z,19.48
2018-12-01T06:28:53.337Z,19.47
2018-12-01T06:29:53.306Z,19.49
2018-12-01T06:30:53.303Z,19.49
2018-12-01T06:31:53.301Z,19.57
2018-12-01T06:32:53.280Z,19.55
2018-12-01T06:33:53.281Z,19.56
2018-12-01T06:34:53.254Z,19.64
2018-12-01T06:35:53.247Z,19.66
2018-12-01T06:36:53.250Z,19.62
2018-12-01T06:37:53.225Z,19.71
2018-12-01T06:38:53.227Z,19.74
2018-12-01T06:39:53.211Z,19.71
2018-12-01T06:40:53.192Z,19.77
2018-12-01T06:41:53.180Z,19.75
2018-12-01T06:42:53.175Z,19.70
2018-12-01T06:43:53.184Z,19.79
2018-12-01T06:44:53.160Z,19.79
2018-12-01T06:45:53.143Z,19.72
2018-12-01T06:46:53.133Z,19.74
2018-12-01T06:47:53.125Z,19.82
2018-12-01T06:48:53.114Z,19.79
2018-12-01T06:49:53.123Z,19.82
2018-12-01T06:50:53.098Z,19.84
2018-12-01T06:51:53.082Z,19.87
2018-12-01T06:52:53.074Z,19.79
2018-12-01T06:53:53.059Z,19.94
2018-12-01T06:54:53.071Z,19.94
2018-12-01T06:55:53.038Z,19.94
2018-12-01T06:56:53.031Z,19.94
2018-12-01T06:57:53.016Z,19.97
2018-12-01T06:58:53.033Z,20.00
2018-12-01T06:59:53.003Z,20.07
2018-12-01T07:00:52.998Z,20.04
2018-12-01T07:01:52.981Z,20.08
2018-12-01T07:02:52.970Z,20.03
2018-12-01T07:03:52.961Z,20.00
2018-12-01T07:04:52.957Z,20.03
2018-12-01T07:05:52.952Z,20.04
2018-12-01T07:06:52.924Z,20.19
2018-12-01T07:07:52.922Z,20.27
2018-12-01T07:08:52.924Z,20.49
2018-12-01T07:09:52.895Z,20.44
2018-12-01T07:10:52.908Z,20.33
2018-12-01T07:11:52.872Z,20.52
2018-12-01T07:12:52.858Z,20.40
2018-12-01T07:13:52.853Z,20.32
2018-12-01T07:14:52.843Z,20.24
2018-12-01T07:15:52.847Z,20.27
2018-12-01T07:16:52.829Z,20.24
2018-12-01T07:17:52.821Z,20.22
2018-12-01T07:18:52.800Z,20.26
2018-12-01T07:19:52.793Z,20.24
2018-12-01T07:20:52.809Z,20.33
2018-12-01T07:21:52.771Z,20.17
2018-12-01T07:22:52.757Z,20.27
2018-12-01T07:23:52.756Z,20.29
2018-12-01T07:24:52.741Z,20.19
2018-12-01T07:25:52.734Z,20.24
2018-12-01T07:26:52.734Z,20.27
2018-12-01T07:27:52.709Z,20.22
2018-12-01T07:28:52.698Z,20.24
2018-12-01T07:29:57.973Z,20.17
2018-12-01T07:30:53.673Z,20.17
2018-12-01T07:31:52.708Z,20.15
2018-12-01T07:32:52.673Z,20.15
2018-12-01T07:33:52.721Z,20.14
2018-12-01T07:34:52.646Z,20.19
2018-12-01T07:35:52.628Z,20.17
2018-12-01T07:36:52.625Z,20.14
2018-12-01T07:37:52.621Z,20.10
2018-12-01T07:38:52.593Z,20.22
2018-12-01T07:39:52.588Z,20.24
2018-12-01T07:40:52.578Z,20.48
2018-12-01T07:41:52.569Z,20.50
2018-12-01T07:42:52.572Z,20.60
2018-12-01T07:43:52.536Z,20.70
2018-12-01T07:44:52.537Z,20.56
2018-12-01T07:45:52.537Z,20.63
2018-12-01T07:46:52.517Z,20.59
2018-12-01T07:47:52.514Z,20.58
2018-12-01T07:48:52.491Z,20.55
2018-12-01T07:49:52.496Z,20.50
2018-12-01T07:50:52.485Z,20.42
2018-12-01T07:51:52.463Z,20.42
2018-12-01T07:52:52.476Z,20.26
2018-12-01T07:53:52.443Z,20.22
2018-12-01T07:54:52.429Z,20.24
2018-12-01T07:55:52.416Z,20.15
2018-12-01T07:56:52.596Z,20.18
2018-12-01T07:57:52.466Z,20.17
2018-12-01T07:58:52.384Z,20.14
2018-12-01T07:59:52.375Z,20.19
2018-12-01T08:00:52.390Z,20.17
2018-12-01T08:01:52.368Z,20.18
2018-12-01T08:02:52.358Z,20.21
2018-12-01T08:03:52.350Z,20.22
2018-12-01T08:04:52.337Z,20.22
2018-12-01T08:05:52.322Z,20.27
2018-12-01T08:06:52.304Z,20.26
2018-12-01T08:07:52.302Z,20.32
2018-12-01T08:08:52.299Z,20.24
2018-12-01T08:09:52.270Z,20.24
2018-12-01T08:10:52.268Z,20.26
2018-12-01T08:11:52.254Z,20.15
2018-12-01T08:12:52.236Z,20.22
2018-12-01T08:13:52.250Z,20.14
2018-12-01T08:14:52.222Z,20.19
2018-12-01T08:15:52.212Z,20.18
2018-12-01T08:16:52.199Z,20.14
2018-12-01T08:17:52.270Z,20.12
2018-12-01T08:18:52.184Z,20.11
2018-12-01T08:19:52.186Z,20.07
2018-12-01T08:20:52.642Z,19.92
2018-12-01T08:21:52.145Z,19.94
2018-12-01T08:22:52.135Z,19.92
2018-12-01T08:23:52.126Z,19.85
2018-12-01T08:24:52.136Z,19.79
2018-12-01T08:25:52.116Z,19.85
2018-12-01T08:26:52.130Z,19.89
2018-12-01T08:27:52.096Z,19.77
2018-12-01T08:28:52.085Z,19.78
2018-12-01T08:29:52.074Z,19.81
2018-12-01T08:30:52.055Z,19.74
2018-12-01T08:31:52.055Z,19.78
2018-12-01T08:32:52.050Z,19.78
2018-12-01T08:33:52.087Z,19.90
2018-12-01T08:34:52.143Z,19.84
2018-12-01T08:35:52.013Z,19.92
2018-12-01T08:36:51.986Z,19.93
2018-12-01T08:37:51.984Z,19.96
2018-12-01T08:38:51.968Z,19.93
2018-12-01T08:39:51.977Z,20.00
2018-12-01T08:40:51.965Z,20.04
2018-12-01T08:41:51.942Z,20.07
2018-12-01T08:42:51.928Z,20.07
2018-12-01T08:43:51.917Z,20.04
2018-12-01T08:44:51.922Z,20.07
2018-12-01T08:45:51.912Z,20.08
2018-12-01T08:46:51.891Z,20.15
2018-12-01T08:47:51.878Z,20.11
2018-12-01T08:48:51.870Z,20.15
2018-12-01T08:49:51.876Z,20.21
2018-12-01T08:50:51.850Z,20.27
2018-12-01T08:51:51.834Z,20.17
2018-12-01T08:52:51.831Z,20.22
2018-12-01T08:53:51.813Z,20.24
2018-12-01T08:54:51.852Z,20.34
2018-12-01T08:55:51.872Z,20.37
2018-12-01T08:56:51.791Z,20.32
2018-12-01T08:57:51.771Z,20.33
2018-12-01T08:58:51.816Z,20.42
2018-12-01T08:59:51.770Z,20.34
2018-12-01T09:00:51.751Z,20.34
2018-12-01T09:01:51.772Z,20.26
2018-12-01T09:02:51.724Z,20.32
2018-12-01T09:03:51.710Z,20.27
2018-12-01T09:04:51.721Z,20.21
2018-12-01T09:05:51.694Z,20.24
2018-12-01T09:06:51.684Z,20.32
2018-12-01T09:07:51.683Z,20.30
2018-12-01T09:08:51.677Z,20.19
2018-12-01T09:09:51.742Z,20.27
2018-12-01T09:10:51.684Z,20.34
2018-12-01T09:11:51.638Z,20.40
2018-12-01T09:12:51.640Z,20.32
2018-12-01T09:13:51.616Z,20.24
2018-12-01T09:14:51.620Z,20.30
2018-12-01T09:15:51.612Z,20.24
2018-12-01T09:16:51.636Z,20.33
2018-12-01T09:17:51.567Z,20.39
2018-12-01T09:18:52.161Z,20.33
2018-12-01T09:19:51.582Z,20.36
2018-12-01T09:20:51.542Z,20.53
2018-12-01T09:21:51.524Z,20.55
2018-12-01T09:22:51.515Z,20.49
2018-12-01T09:23:51.538Z,20.60
2018-12-01T09:24:51.535Z,20.60
2018-12-01T09:25:51.483Z,20.67
2018-12-01T09:26:51.470Z,20.66
2018-12-01T09:27:51.470Z,20.56
2018-12-01T09:28:51.457Z,20.55
2018-12-01T09:29:51.443Z,20.56
2018-12-01T09:30:51.441Z,20.58
2018-12-01T09:31:51.426Z,20.59
2018-12-01T09:32:51.420Z,20.60
2018-12-01T09:33:51.430Z,20.55
2018-12-01T09:34:51.408Z,20.55
2018-12-01T09:35:51.390Z,20.56
2018-12-01T09:36:51.373Z,20.50
2018-12-01T09:37:51.361Z,20.50
2018-12-01T09:38:51.371Z,20.48
2018-12-01T09:39:51.337Z,20.46
2018-12-01T09:40:51.342Z,20.53
2018-12-01T09:41:51.321Z,20.56
2018-12-01T09:42:51.312Z,20.58
2018-12-01T09:43:51.319Z,20.58
2018-12-01T09:44:51.291Z,20.39
2018-12-01T09:45:51.295Z,20.26
2018-12-01T09:46:51.278Z,20.03
2018-12-01T09:47:51.367Z,19.78
2018-12-01T09:48:51.270Z,19.44
2018-12-01T09:49:51.258Z,18.86
2018-12-01T09:50:51.293Z,18.31
2018-12-01T09:51:51.218Z,18.02
2018-12-01T09:52:51.289Z,17.75
2018-12-01T09:53:51.245Z,17.52
2018-12-01T09:54:51.189Z,17.38
2018-12-01T09:55:51.184Z,17.24
2018-12-01T09:56:51.239Z,17.07
2018-12-01T09:57:51.166Z,16.82
2018-12-01T09:58:51.176Z,16.62
2018-12-01T09:59:51.154Z,16.58
2018-12-01T10:00:51.143Z,16.43
2018-12-01T10:01:51.121Z,16.32
2018-12-01T10:02:51.103Z,16.17
2018-12-01T10:03:51.105Z,16.10
2018-12-01T10:04:51.085Z,15.96
2018-12-01T10:05:51.100Z,15.88
2018-12-01T10:06:51.060Z,15.88
2018-12-01T10:07:51.052Z,15.90
2018-12-01T10:08:51.039Z,15.78
2018-12-01T10:09:51.036Z,15.73
2018-12-01T10:10:51.080Z,15.67
2018-12-01T10:11:51.002Z,15.81
2018-12-01T10:12:50.991Z,15.98
2018-12-01T10:13:50.986Z,16.32
2018-12-01T10:14:50.974Z,16.32
2018-12-01T10:15:50.985Z,16.21
2018-12-01T10:16:51.124Z,16.13
2018-12-01T10:17:50.945Z,16.08
2018-12-01T10:18:56.328Z,16.05
2018-12-01T10:19:51.919Z,15.88
2018-12-01T10:20:50.992Z,15.83
2018-12-01T10:21:50.920Z,15.69
2018-12-01T10:22:50.899Z,15.66
2018-12-01T10:23:50.890Z,15.55
2018-12-01T10:24:50.890Z,15.62
2018-12-01T10:25:50.867Z,15.48
2018-12-01T10:26:50.852Z,15.48
2018-12-01T10:27:50.871Z,15.39
2018-12-01T10:28:50.831Z,15.35
2018-12-01T10:29:51.108Z,15.43
2018-12-01T10:30:51.086Z,15.36
2018-12-01T10:31:50.837Z,15.43
2018-12-01T10:32:50.800Z,15.81
2018-12-01T10:33:50.776Z,16.00
2018-12-01T10:34:50.761Z,16.08
2018-12-01T10:35:50.768Z,16.16
2018-12-01T10:36:50.746Z,16.36
2018-12-01T10:37:50.739Z,16.41
2018-12-01T10:38:50.728Z,16.58
2018-12-01T10:39:50.750Z,16.72
2018-12-01T10:40:50.747Z,16.86
2018-12-01T10:41:50.756Z,16.91
2018-12-01T10:42:50.694Z,17.01
2018-12-01T10:43:50.769Z,17.14
2018-12-01T10:44:50.709Z,17.09
2018-12-01T10:45:50.674Z,17.20
2018-12-01T10:46:50.713Z,17.24
2018-12-01T10:47:50.642Z,17.31
2018-12-01T10:48:50.619Z,17.28
2018-12-01T10:49:50.618Z,17.38
2018-12-01T10:50:50.612Z,17.44
2018-12-01T10:51:50.608Z,17.42
2018-12-01T10:52:50.619Z,17.50
2018-12-01T10:53:50.674Z,17.57
2018-12-01T10:54:50.559Z,17.56
2018-12-01T10:55:50.552Z,17.65
2018-12-01T10:56:50.557Z,17.53
2018-12-01T10:57:50.531Z,17.57
2018-12-01T10:58:50.524Z,17.52
2018-12-01T10:59:50.504Z,17.56
2018-12-01T11:00:50.565Z,17.65
2018-12-01T11:01:50.568Z,17.59
2018-12-01T11:02:55.483Z,17.65
2018-12-01T11:03:51.529Z,17.66
2018-12-01T11:04:50.525Z,17.68
2018-12-01T11:05:50.479Z,17.63
2018-12-01T11:06:50.498Z,17.69
2018-12-01T11:07:50.530Z,17.65
2018-12-01T11:08:50.427Z,17.60
2018-12-01T11:09:50.413Z,17.68
2018-12-01T11:10:55.184Z,17.60
2018-12-01T11:11:51.454Z,17.65
2018-12-01T11:12:50.366Z,17.71
2018-12-01T11:13:50.356Z,17.66
2018-12-01T11:14:50.413Z,17.59
2018-12-01T11:15:50.412Z,17.57
2018-12-01T11:16:50.380Z,17.57
2018-12-01T11:17:50.434Z,17.63
2018-12-01T11:18:50.366Z,17.63
2018-12-01T11:19:50.433Z,17.53
2018-12-01T11:20:50.314Z,17.57
2018-12-01T11:21:50.309Z,17.52
2018-12-01T11:22:50.282Z,17.60
2018-12-01T11:23:50.252Z,17.53
2018-12-01T11:24:50.273Z,17.57
2018-12-01T11:25:50.323Z,17.59
2018-12-01T11:26:50.300Z,17.53
2018-12-01T11:27:50.240Z,17.54
2018-12-01T11:28:50.198Z,17.57
2018-12-01T11:29:50.191Z,17.56
2018-12-01T11:30:50.186Z,17.52
2018-12-01T11:31:50.188Z,17.49
2018-12-01T11:32:50.199Z,17.65
2018-12-01T11:33:50.147Z,17.54
2018-12-01T11:34:50.135Z,17.59
2018-12-01T11:35:50.125Z,17.52
2018-12-01T11:36:50.127Z,17.59
2018-12-01T11:37:50.124Z,17.63
2018-12-01T11:38:50.133Z,17.54
2018-12-01T11:39:50.101Z,17.57
2018-12-01T11:40:50.158Z,17.52
2018-12-01T11:41:50.121Z,17.60
2018-12-01T11:42:50.119Z,17.54
2018-12-01T11:43:50.144Z,17.56
2018-12-01T11:44:50.107Z,17.54
2018-12-01T11:45:50.084Z,17.53
2018-12-01T11:46:50.011Z,17.52
2018-12-01T11:47:50.083Z,17.53
2018-12-01T11:48:50.016Z,17.49
2018-12-01T11:49:49.998Z,17.57
2018-12-01T11:50:49.990Z,17.57
2018-12-01T11:51:50.558Z,17.52
2018-12-01T11:52:50.000Z,17.63
2018-12-01T11:53:49.979Z,17.56
2018-12-01T11:54:51.175Z,17.63
2018-12-01T11:55:49.978Z,17.53
2018-12-01T11:56:49.967Z,17.54
2018-12-01T11:57:50.151Z,17.49
2018-12-01T11:58:49.978Z,17.59
2018-12-01T11:59:49.937Z,17.53
2018-12-01T12:00:49.974Z,17.54
2018-12-01T12:01:49.904Z,17.50
2018-12-01T12:02:50.015Z,17.54
2018-12-01T12:03:49.894Z,17.41
2018-12-01T12:04:49.871Z,17.38
2018-12-01T12:05:49.942Z,17.42
2018-12-01T12:06:49.864Z,17.49
2018-12-01T12:07:49.915Z,17.46
2018-12-01T12:08:49.880Z,17.39
2018-12-01T12:09:49.883Z,17.39
2018-12-01T12:10:49.804Z,17.42
2018-12-01T12:11:49.798Z,17.42
2018-12-01T12:12:49.823Z,17.44
2018-12-01T12:13:49.780Z,17.38
2018-12-01T12:14:52.072Z,17.41
2018-12-01T12:15:49.780Z,17.38
2018-12-01T12:16:49.788Z,17.39
2018-12-01T12:17:49.788Z,17.41
2018-12-01T12:18:49.728Z,17.46
2018-12-01T12:19:49.714Z,17.37
2018-12-01T12:20:49.697Z,17.32
2018-12-01T12:21:49.724Z,17.41
2018-12-01T12:22:49.720Z,17.42
2018-12-01T12:23:49.632Z,17.42
2018-12-01T12:24:49.629Z,17.41
2018-12-01T12:25:49.658Z,17.39
2018-12-01T12:26:49.605Z,17.41
2018-12-01T12:27:49.612Z,17.46
2018-12-01T12:28:49.675Z,17.44
2018-12-01T12:29:49.590Z,17.46
2018-12-01T12:30:49.581Z,17.50
2018-12-01T12:31:49.794Z,17.54
2018-12-01T12:32:49.552Z,17.49
2018-12-01T12:33:49.613Z,17.49
2018-12-01T12:34:49.514Z,17.56
2018-12-01T12:35:49.510Z,17.53
2018-12-01T12:36:49.486Z,17.50
2018-12-01T12:37:49.502Z,17.53
2018-12-01T12:38:49.591Z,17.52
2018-12-01T12:39:49.549Z,17.63
2018-12-01T12:40:49.513Z,17.57
2018-12-01T12:41:49.502Z,17.68
2018-12-01T12:42:49.446Z,17.68
2018-12-01T12:43:49.568Z,17.66
2018-12-01T12:44:49.468Z,17.65
2018-12-01T12:45:49.439Z,17.68
2018-12-01T12:46:49.425Z,17.68
2018-12-01T12:47:49.434Z,17.79
2018-12-01T12:48:49.398Z,17.75
2018-12-01T12:49:49.357Z,17.78
2018-12-01T12:50:53.108Z,17.82
2018-12-01T12:51:49.336Z,17.79
2018-12-01T12:52:49.337Z,17.84